Annette Island, AK

5:52 PM AKDT on September 30, 2016 (GMT -0800)
Annette Island | | Change Station

Elev 112 ft 55.04 °N, 131.57 °W | Updated 59 minutes ago

Light Rain
Light Rain
49 °F
Feels Like 49 °F
N
7
Wind Variable Wind from NNW

Today
High -- | Low -- °F
--% Chance of Precip.
Yesterday
High -- | Low -- °F
Precip. -- in
Pressure 29.99 in
Visibility 10.0 miles
Clouds Mostly Cloudy 5500 ft
Overcast 7500 ft
Dew Point 46 °F
Humidity 90%
Rainfall 0.11 in
Snow Depth Not available.
6:48 AM 6:22 PM
New Moon, 0% visible
METAR PANT 010053Z 34006KT 10SM -RA BKN055 OVC075 09/08 A2999 RMK AO2 SLP156 P0002 T00940078
Pressure 29.99 in
Visibility 10.0 miles
Clouds Mostly Cloudy 5500 ft
Overcast 7500 ft
Dew Point 46 °F
Humidity 90%
Rainfall 0.11 in
Snow Depth Not available.
6:48 AM 6:22 PM
New Moon, 0% visible
METAR PANT 010053Z 34006KT 10SM -RA BKN055 OVC075 09/08 A2999 RMK AO2 SLP156 P0002 T00940078

10-Day Weather Forecast

Almanac

Astronomy

Sep. 30, 2016 Rise Set
Actual Time
Civil Twilight
Nautical Twilight
Astronomical Twilight
Moon
Length of Visible Light
Length of Day
Tomorrow will be .
, % of the Moon is Illuminated

Today's Extremes

State Highs State Lows

Community

WunderPhotos

Upload Photos

1,942,837 photos uploaded!

WunderBlog® & News

Nearby

Air Quality

  Air Quality AQ Index Pollutant
Not available.

Snow Depth

Station Depth Elevation

Earthquake Activity

City Distance Mag. Time & Date
Minimum magnitude displayed is 2.5.

Coastal Water Temperatures

Place Temperature

Stations

Nearby Weather Stations

Station Location Temp. Windchill Dew Point Humidity Wind Precip. Elev Updated Type
                   

Watches & Warnings

There are currently no watches in effect.